Tuesday, January 23, 2018, 11:59 PM GMT
Back to Local

CXMY, Malay Falls , N. S.

Location: , , Canada Lat: 44.983
Local Time: 11:59 PM GMT (23:59 GMT) Lon: -62.483
Time Zone: GMT Elev: 131 ft

Show me the last for .
Show Coded

Time T Td Feel RH Dir Speed Gust Alt SLP Vis Weather Sky Remarks
2018-01-23 23:00 37 37 - 99 - - - - - 0 1-hr Precip Total: 0.05"
2018-01-23 22:00 33 34 - 105 - - - - - 0 1-hr Precip Total: 0.05"
2018-01-23 21:00 33 33 - 98 - - - - - 0 None
2018-01-23 20:00 32 32 - 100 - - - - - 0 None
2018-01-23 19:00 31 30 - 96 - - - - - 0 None
2018-01-23 18:00 31 30 - 97 - - - - - 0 1-hr Precip Total: 0.02"
2018-01-23 17:00 29 29 - 97 - - - - - 0 None
2018-01-23 16:00 27 26 - 97 - - - - - 0 1-hr Precip Total: 0.03"
2018-01-23 15:00 24 23 - 96 - - - - - 0 1-hr Precip Total: 0.03"
2018-01-23 14:00 20 19 - 95 - - - - - 0 None
2018-01-23 13:00 17 16 - 93 - - - - - 0 None
2018-01-23 12:00 14 12 - 92 - - - - - 0 None
2018-01-23 11:00 12 8 - 81 - - - - - 0 None
2018-01-23 10:00 10 7 - 85 - - - - - 0 None
2018-01-23 09:00 9 6 - 86 - - - - - 0 None
2018-01-23 08:00 6 3 - 87 - - - - - 0 None
2018-01-23 07:00 3 1 - 88 - - - - - 0 None
2018-01-23 06:00 2 -1 - 89 - - - - - 0 None
2018-01-23 05:00 2 -2 - 82 - - - - - 0 None
2018-01-23 04:00 -2 -5 - 89 - - - - - 0 None
2018-01-23 03:00 1 -4 - 82 - - - - - 0 None
2018-01-23 02:00 1 -2 - 88 - - - - - 0 None
2018-01-23 01:00 3 0 - 85 - - - - - 0 None
2018-01-23 00:00 6 1 - 79 - - - - - 0 None

Support USWX by starting your Amazon purchase here.